Time;durP1;ratioP1;P1;durP2;ratioP2;P2;SDS_P1;SDS_P2;PMS_P1;PMS_P2;Temp;Humidity;BMP_temperature;BMP_pressure;BME280_temperature;BME280_humidity;BME280_pressure;Samples;Min_cycle;Max_cycle;Signal;HPM_P1;HPM_P2
2022/01/21 00:01:24;;;;;;;1.00;1.00;;;;;;;;;;6317080;28;20231;-79
2022/01/21 00:04:28;;;;;;;0.87;0.87;;;;;;;;;;6316831;28;20191;-79
2022/01/21 00:07:32;;;;;;;0.80;0.80;;;;;;;;;;6317180;28;20186;-78
2022/01/21 00:10:37;;;;;;;1.53;0.93;;;;;;;;;;6316608;28;20230;-78
2022/01/21 00:13:43;;;;;;;2.97;1.20;;;;;;;;;;6316752;28;20237;-78
2022/01/21 00:16:48;;;;;;;1.00;1.00;;;;;;;;;;6315417;28;20231;-79
2022/01/21 00:30:05;;;;;;;1.60;1.10;;;;;;;;;;6315414;28;20427;-79
2022/01/21 00:30:11;;;;;;;1.00;1.00;;;;;;;;;;6315427;28;20230;-79
2022/01/21 00:33:18;;;;;;;1.20;1.20;;;;;;;;;;6316633;28;20225;-78
2022/01/21 00:36:24;;;;;;;1.00;1.00;;;;;;;;;;6315475;28;20239;-79
2022/01/21 00:39:31;;;;;;;1.07;1.07;;;;;;;;;;6297561;28;20384;-79
2022/01/21 00:45:53;;;;;;;0.97;0.97;;;;;;;;;;6295138;28;20234;-79
2022/01/21 00:48:59;;;;;;;1.10;1.10;;;;;;;;;;6316733;28;20186;-78
2022/01/21 00:52:04;;;;;;;1.50;1.20;;;;;;;;;;6315821;28;20229;-78
2022/01/21 00:55:10;;;;;;;2.17;0.90;;;;;;;;;;6297924;28;20276;-79
2022/01/21 00:58:14;;;;;;;1.00;1.00;;;;;;;;;;6297593;28;20202;-79
2022/01/21 01:01:20;;;;;;;3.40;1.47;;;;;;;;;;6297030;28;20300;-79
2022/01/21 01:04:27;;;;;;;0.87;0.87;;;;;;;;;;6315941;28;20203;-79
2022/01/21 01:07:31;;;;;;;1.10;1.10;;;;;;;;;;6297638;28;20233;-78
2022/01/21 01:10:58;;;;;;;1.17;1.10;;;;;;;;;;6302624;28;20231;-79
2022/01/21 01:20:47;;;;;;;0.90;0.90;;;;;;;;;;6272163;28;20258;-78
2022/01/21 01:24:05;;;;;;;1.17;1.17;;;;;;;;;;6271988;28;20249;-78
2022/01/21 01:30:33;;;;;;;1.13;1.13;;;;;;;;;;6289480;28;20284;-78
2022/01/21 01:33:40;;;;;;;1.20;1.10;;;;;;;;;;6272506;28;20231;-78
2022/01/21 01:36:47;;;;;;;0.90;0.90;;;;;;;;;;6271230;28;20242;-78
2022/01/21 01:40:00;;;;;;;3.40;1.57;;;;;;;;;;6288185;28;20290;-79
2022/01/21 01:49:24;;;;;;;1.47;1.30;;;;;;;;;;6270635;28;20274;-78
2022/01/21 01:50:00;;;;;;;0.97;0.97;;;;;;;;;;6270547;28;20227;-78
2022/01/21 01:53:07;;;;;;;2.93;1.00;;;;;;;;;;6288908;28;20194;-78
2022/01/21 01:56:14;;;;;;;3.20;1.17;;;;;;;;;;6289068;28;20247;-78
2022/01/21 01:59:18;;;;;;;0.93;0.93;;;;;;;;;;6271651;28;20554;-78
2022/01/21 02:02:23;;;;;;;0.90;0.90;;;;;;;;;;6270677;28;20295;-78
2022/01/21 02:05:28;;;;;;;4.30;1.17;;;;;;;;;;6287967;28;20354;-78
2022/01/21 02:08:34;;;;;;;0.90;0.90;;;;;;;;;;6280207;28;20194;-78
2022/01/21 02:11:38;;;;;;;1.10;1.10;;;;;;;;;;6303059;28;20320;-79
2022/01/21 02:14:51;;;;;;;3.63;1.00;;;;;;;;;;6314005;28;20530;-79
2022/01/21 02:21:35;;;;;;;1.00;1.00;;;;;;;;;;6296254;28;20237;-79
2022/01/21 02:24:48;;;;;;;1.00;1.00;;;;;;;;;;6314578;28;20205;-79
2022/01/21 02:27:55;;;;;;;1.00;1.00;;;;;;;;;;6297691;28;20210;-79
2022/01/21 02:31:00;;;;;;;2.07;1.20;;;;;;;;;;6296394;28;20230;-79
2022/01/21 02:34:06;;;;;;;1.63;1.23;;;;;;;;;;6297393;28;20253;-79
2022/01/21 02:37:16;;;;;;;1.10;1.10;;;;;;;;;;6296554;28;20305;-79
2022/01/21 02:40:20;;;;;;;1.30;1.30;;;;;;;;;;6313527;28;20396;-79
2022/01/21 02:43:25;;;;;;;1.00;1.00;;;;;;;;;;6315066;28;20192;-79
2022/01/21 02:46:35;;;;;;;1.30;1.00;;;;;;;;;;6297003;28;20240;-79
2022/01/21 02:49:40;;;;;;;1.33;1.20;;;;;;;;;;6296517;28;20395;-79
2022/01/21 02:52:54;;;;;;;1.03;1.00;;;;;;;;;;6297071;28;20202;-79
2022/01/21 02:55:59;;;;;;;1.20;1.10;;;;;;;;;;6295976;28;20239;-79
2022/01/21 02:59:04;;;;;;;2.17;1.17;;;;;;;;;;6296591;28;20202;-79
2022/01/21 03:02:10;;;;;;;1.53;1.30;;;;;;;;;;6296740;28;20235;-79
2022/01/21 03:05:17;;;;;;;0.90;0.90;;;;;;;;;;6314400;28;20252;-79
2022/01/21 03:08:23;;;;;;;0.90;0.90;;;;;;;;;;6297128;28;20556;-79
2022/01/21 03:11:28;;;;;;;1.20;1.20;;;;;;;;;;6268582;28;20231;-79
2022/01/21 03:14:32;;;;;;;1.20;1.20;;;;;;;;;;6264988;28;20188;-79
2022/01/21 03:17:38;;;;;;;2.20;1.30;;;;;;;;;;6265430;28;20227;-79
2022/01/21 03:20:42;;;;;;;1.03;1.03;;;;;;;;;;6264005;28;20237;-79
2022/01/21 03:23:50;;;;;;;1.13;1.13;;;;;;;;;;6264498;28;20261;-78
2022/01/21 03:26:56;;;;;;;1.13;1.13;;;;;;;;;;6245203;28;20285;-79
2022/01/21 03:30:03;;;;;;;1.20;1.20;;;;;;;;;;6246153;28;20236;-79
2022/01/21 03:33:18;;;;;;;1.10;1.10;;;;;;;;;;6231342;28;20204;-79
2022/01/21 03:36:23;;;;;;;1.27;1.20;;;;;;;;;;6235207;28;20317;-79
2022/01/21 03:39:28;;;;;;;1.00;1.00;;;;;;;;;;6221655;28;20251;-79
2022/01/21 03:42:34;;;;;;;0.97;0.97;;;;;;;;;;6221833;28;20207;-79
2022/01/21 03:45:38;;;;;;;3.73;1.00;;;;;;;;;;6221573;28;20239;-79
2022/01/21 03:48:47;;;;;;;2.30;1.00;;;;;;;;;;6222241;28;20378;-79
2022/01/21 03:51:52;;;;;;;1.53;1.20;;;;;;;;;;6225398;28;20293;-79
2022/01/21 03:54:58;;;;;;;1.10;1.10;;;;;;;;;;6227016;28;20300;-79
2022/01/21 03:58:03;;;;;;;1.50;1.03;;;;;;;;;;6227696;28;20215;-79
2022/01/21 04:01:11;;;;;;;2.43;1.20;;;;;;;;;;6227000;28;20286;-79
2022/01/21 04:04:16;;;;;;;4.03;1.40;;;;;;;;;;6226734;28;20231;-79
2022/01/21 04:07:20;;;;;;;1.33;1.20;;;;;;;;;;6226579;28;20239;-79
2022/01/21 04:10:26;;;;;;;1.50;1.20;;;;;;;;;;6226190;28;20231;-79
2022/01/21 04:13:30;;;;;;;2.23;1.20;;;;;;;;;;6243445;28;20193;-79
2022/01/21 04:16:39;;;;;;;1.90;1.20;;;;;;;;;;6225668;28;20240;-79
2022/01/21 04:19:43;;;;;;;3.53;1.10;;;;;;;;;;6242738;28;20203;-79
2022/01/21 04:22:48;;;;;;;1.67;1.37;;;;;;;;;;6225974;28;20504;-79
2022/01/21 04:25:54;;;;;;;2.53;1.30;;;;;;;;;;6243073;28;20243;-79
2022/01/21 04:28:59;;;;;;;1.23;1.20;;;;;;;;;;6225941;28;20264;-79
2022/01/21 04:32:11;;;;;;;2.23;1.30;;;;;;;;;;6225743;28;20259;-79
2022/01/21 04:35:15;;;;;;;5.00;1.30;;;;;;;;;;6243403;28;20238;-79
2022/01/21 04:38:22;;;;;;;1.00;1.00;;;;;;;;;;6246285;28;20395;-78
2022/01/21 04:41:38;;;;;;;1.00;1.00;;;;;;;;;;6249820;28;20282;-79
2022/01/21 04:48:05;;;;;;;1.20;1.20;;;;;;;;;;6249885;28;20214;-79
2022/01/21 04:51:15;;;;;;;5.63;1.30;;;;;;;;;;6246048;28;20260;-79
2022/01/21 04:54:19;;;;;;;0.90;0.90;;;;;;;;;;6249423;28;20277;-79
2022/01/21 04:57:25;;;;;;;1.17;1.17;;;;;;;;;;6248561;28;20244;-79
2022/01/21 05:00:29;;;;;;;1.10;1.10;;;;;;;;;;6249274;28;20231;-79
2022/01/21 05:03:38;;;;;;;1.27;1.27;;;;;;;;;;6248325;28;20202;-79
2022/01/21 05:06:43;;;;;;;0.90;0.90;;;;;;;;;;6248532;28;20284;-79
2022/01/21 05:09:47;;;;;;;1.00;1.00;;;;;;;;;;6248968;28;20227;-79
2022/01/21 05:12:53;;;;;;;1.90;1.10;;;;;;;;;;6249466;28;20410;-79
2022/01/21 05:16:04;;;;;;;1.00;1.00;;;;;;;;;;6248080;28;20250;-79
2022/01/21 05:19:14;;;;;;;1.13;1.13;;;;;;;;;;6249145;28;20513;-79
2022/01/21 05:22:44;;;;;;;0.90;0.90;;;;;;;;;;6248877;28;20281;-79
2022/01/21 05:25:48;;;;;;;1.20;1.20;;;;;;;;;;6247080;28;20242;-79
2022/01/21 05:28:54;;;;;;;1.00;1.00;;;;;;;;;;6265510;28;20199;-79
2022/01/21 05:32:18;;;;;;;1.30;1.30;;;;;;;;;;6257559;28;20322;-79
2022/01/21 05:35:37;;;;;;;0.90;0.90;;;;;;;;;;6265158;28;20243;-79
2022/01/21 05:39:09;;;;;;;1.30;1.20;;;;;;;;;;6248217;28;20387;-79
2022/01/21 05:42:33;;;;;;;1.13;1.13;;;;;;;;;;6247986;28;20285;-79
2022/01/21 05:46:40;;;;;;;1.10;1.10;;;;;;;;;;6265470;28;20284;-79
2022/01/21 05:50:05;;;;;;;1.37;1.10;;;;;;;;;;6264375;28;20537;-79
2022/01/21 05:53:22;;;;;;;0.93;0.93;;;;;;;;;;6267246;28;20187;-78
2022/01/21 05:56:47;;;;;;;1.20;1.20;;;;;;;;;;6248311;28;20253;-78
2022/01/21 06:00:10;;;;;;;1.53;1.43;;;;;;;;;;6262901;28;20241;-78
2022/01/21 06:03:24;;;;;;;1.20;1.20;;;;;;;;;;6265737;28;20250;-78
2022/01/21 06:06:29;;;;;;;1.10;1.10;;;;;;;;;;6250094;28;20272;-78
2022/01/21 06:09:34;;;;;;;1.03;1.03;;;;;;;;;;6248872;28;20282;-80
2022/01/21 06:12:38;;;;;;;1.00;1.00;;;;;;;;;;6249205;28;20407;-78
2022/01/21 06:15:42;;;;;;;1.40;1.30;;;;;;;;;;6266108;28;20290;-77
2022/01/21 06:18:48;;;;;;;2.10;1.40;;;;;;;;;;6262141;28;20217;-78
2022/01/21 06:21:52;;;;;;;1.10;1.10;;;;;;;;;;6263202;28;20350;-77
2022/01/21 06:24:57;;;;;;;1.17;1.17;;;;;;;;;;6263037;28;20234;-78
2022/01/21 06:28:01;;;;;;;0.93;0.93;;;;;;;;;;6263215;28;20262;-77
2022/01/21 06:31:06;;;;;;;1.00;1.00;;;;;;;;;;6262580;28;20234;-78
2022/01/21 06:34:15;;;;;;;1.30;1.10;;;;;;;;;;6265339;28;20218;-78
2022/01/21 06:37:19;;;;;;;1.00;1.00;;;;;;;;;;6265768;28;20238;-77
2022/01/21 06:40:23;;;;;;;1.30;1.30;;;;;;;;;;6263060;28;20230;-78
2022/01/21 06:43:27;;;;;;;1.70;1.30;;;;;;;;;;6262939;28;20194;-78
2022/01/21 06:46:32;;;;;;;1.00;1.00;;;;;;;;;;6262578;28;20288;-77
2022/01/21 06:49:37;;;;;;;1.30;1.20;;;;;;;;;;6262962;28;20186;-77
2022/01/21 06:52:41;;;;;;;4.23;1.20;;;;;;;;;;6263711;28;20349;-77
2022/01/21 06:55:46;;;;;;;2.53;1.50;;;;;;;;;;6262858;28;20233;-77
2022/01/21 06:58:50;;;;;;;1.67;1.57;;;;;;;;;;6263004;28;20329;-76
2022/01/21 07:01:54;;;;;;;1.10;1.10;;;;;;;;;;6262364;28;20284;-77
2022/01/21 07:04:59;;;;;;;1.37;1.37;;;;;;;;;;6261925;28;20248;-76
2022/01/21 07:08:05;;;;;;;1.20;1.20;;;;;;;;;;6262334;28;20284;-76
2022/01/21 07:11:09;;;;;;;1.23;1.10;;;;;;;;;;6261907;28;20234;-76
2022/01/21 07:14:13;;;;;;;1.20;1.20;;;;;;;;;;6262212;28;20186;-76
2022/01/21 07:17:17;;;;;;;1.10;1.10;;;;;;;;;;6261506;28;20337;-77
2022/01/21 07:20:25;;;;;;;1.37;1.37;;;;;;;;;;6261983;28;20238;-77
2022/01/21 07:23:30;;;;;;;1.20;1.20;;;;;;;;;;6261970;28;20279;-78
2022/01/21 07:26:34;;;;;;;1.00;1.00;;;;;;;;;;6265867;28;20238;-78
2022/01/21 07:29:38;;;;;;;1.57;1.47;;;;;;;;;;6267485;28;20198;-78
2022/01/21 07:32:42;;;;;;;0.90;0.90;;;;;;;;;;6269106;28;20201;-78
2022/01/21 07:35:48;;;;;;;1.20;1.20;;;;;;;;;;6275379;28;20240;-78
2022/01/21 07:38:52;;;;;;;1.10;1.10;;;;;;;;;;6318357;28;20214;-78
2022/01/21 07:41:57;;;;;;;1.40;1.40;;;;;;;;;;6317778;28;20229;-78
2022/01/21 07:45:02;;;;;;;1.00;1.00;;;;;;;;;;6316074;28;20441;-78
2022/01/21 07:48:07;;;;;;;1.70;1.20;;;;;;;;;;6299830;28;20210;-78
2022/01/21 07:51:14;;;;;;;2.40;1.30;;;;;;;;;;6316487;28;20455;-78
2022/01/21 07:54:19;;;;;;;1.90;1.47;;;;;;;;;;6316695;28;20224;-78
2022/01/21 07:57:23;;;;;;;1.10;1.10;;;;;;;;;;6316293;28;20296;-79
2022/01/21 08:00:28;;;;;;;1.10;1.10;;;;;;;;;;6316285;28;20417;-78
2022/01/21 08:03:32;;;;;;;7.23;1.20;;;;;;;;;;6316875;28;20238;-78
2022/01/21 08:06:37;;;;;;;0.90;0.90;;;;;;;;;;6316414;28;20236;-77
2022/01/21 08:09:41;;;;;;;1.20;1.20;;;;;;;;;;6315130;28;20194;-77
2022/01/21 08:12:46;;;;;;;3.60;1.50;;;;;;;;;;6315991;28;20185;-78
2022/01/21 08:15:51;;;;;;;1.43;1.40;;;;;;;;;;6315017;28;20428;-78
2022/01/21 08:18:56;;;;;;;1.00;1.00;;;;;;;;;;6316422;28;20213;-77
2022/01/21 08:22:02;;;;;;;2.17;1.03;;;;;;;;;;6314162;28;20445;-77
2022/01/21 08:25:08;;;;;;;1.57;1.47;;;;;;;;;;6315805;28;20255;-79
2022/01/21 08:28:15;;;;;;;1.20;1.20;;;;;;;;;;6315614;28;20497;-78
2022/01/21 08:31:19;;;;;;;1.30;1.30;;;;;;;;;;6315889;28;20397;-78
2022/01/21 08:34:23;;;;;;;1.47;1.40;;;;;;;;;;6315138;28;20206;-78
2022/01/21 08:37:30;;;;;;;1.03;1.03;;;;;;;;;;6315048;28;20288;-78
2022/01/21 08:40:34;;;;;;;1.00;1.00;;;;;;;;;;6315111;28;20262;-78
2022/01/21 08:43:38;;;;;;;5.50;1.60;;;;;;;;;;6314935;28;20186;-78
2022/01/21 08:46:42;;;;;;;1.47;1.47;;;;;;;;;;6315046;28;20535;-78
2022/01/21 08:50:09;;;;;;;1.90;1.10;;;;;;;;;;6315159;28;20229;-78
2022/01/21 08:56:33;;;;;;;1.37;1.37;;;;;;;;;;6314159;28;20438;-78
2022/01/21 08:59:37;;;;;;;1.10;1.10;;;;;;;;;;6314059;28;20285;-78
2022/01/21 09:02:42;;;;;;;1.00;1.00;;;;;;;;;;6314594;28;20503;-78
2022/01/21 09:05:49;;;;;;;1.20;1.20;;;;;;;;;;6314710;28;20240;-78
2022/01/21 09:08:54;;;;;;;2.93;1.20;;;;;;;;;;6316129;28;20223;-78
2022/01/21 09:12:00;;;;;;;1.40;1.40;;;;;;;;;;6291264;28;20232;-78
2022/01/21 09:15:06;;;;;;;0.83;0.83;;;;;;;;;;6289452;28;20458;-78
2022/01/21 09:18:19;;;;;;;0.90;0.90;;;;;;;;;;6290090;28;20210;-76
2022/01/21 09:21:25;;;;;;;6.67;1.30;;;;;;;;;;6289481;28;20323;-78
2022/01/21 09:24:31;;;;;;;1.60;1.47;;;;;;;;;;6288770;28;20223;-78
2022/01/21 09:27:36;;;;;;;1.43;1.43;;;;;;;;;;6290209;28;20186;-79
2022/01/21 09:30:40;;;;;;;1.60;1.50;;;;;;;;;;6289981;28;20237;-79
2022/01/21 09:33:45;;;;;;;2.77;1.40;;;;;;;;;;6289099;28;20185;-79
2022/01/21 09:36:49;;;;;;;1.30;1.23;;;;;;;;;;6288883;28;20313;-79
2022/01/21 09:39:55;;;;;;;1.40;1.20;;;;;;;;;;6289687;28;20240;-78
2022/01/21 09:43:00;;;;;;;1.10;1.10;;;;;;;;;;6291361;28;20257;-78
2022/01/21 09:46:07;;;;;;;3.40;1.40;;;;;;;;;;6289713;28;20273;-78
2022/01/21 09:49:26;;;;;;;1.90;1.27;;;;;;;;;;6288878;28;20189;-78
2022/01/21 09:52:32;;;;;;;1.30;1.30;;;;;;;;;;6287864;28;20205;-76
2022/01/21 09:55:37;;;;;;;1.10;1.10;;;;;;;;;;6287741;28;20336;-76
2022/01/21 09:58:45;;;;;;;1.43;1.43;;;;;;;;;;6287907;28;20325;-76
2022/01/21 10:01:50;;;;;;;1.20;1.20;;;;;;;;;;6286967;28;20229;-77
2022/01/21 10:04:57;;;;;;;2.27;1.50;;;;;;;;;;6287217;28;20234;-77
2022/01/21 10:08:01;;;;;;;1.37;1.37;;;;;;;;;;6288478;28;20226;-77
2022/01/21 10:11:06;;;;;;;1.00;1.00;;;;;;;;;;6296757;28;20233;-77
2022/01/21 10:14:11;;;;;;;1.20;1.20;;;;;;;;;;6311607;28;20356;-77
2022/01/21 10:17:16;;;;;;;1.10;1.10;;;;;;;;;;6311110;28;20232;-77
2022/01/21 10:20:22;;;;;;;1.40;1.30;;;;;;;;;;6312033;28;20274;-78
2022/01/21 10:23:26;;;;;;;1.13;1.13;;;;;;;;;;6312045;28;20373;-77
2022/01/21 10:26:32;;;;;;;1.57;1.37;;;;;;;;;;6311468;28;20229;-77
2022/01/21 10:29:38;;;;;;;1.13;1.13;;;;;;;;;;6311225;28;20189;-78
2022/01/21 10:32:43;;;;;;;1.30;1.30;;;;;;;;;;6313637;28;20201;-78
2022/01/21 10:36:09;;;;;;;0.80;0.80;;;;;;;;;;6312253;28;20546;-78
2022/01/21 10:39:18;;;;;;;0.93;0.93;;;;;;;;;;6313250;28;20214;-78
2022/01/21 10:42:25;;;;;;;1.40;1.40;;;;;;;;;;6312671;28;20594;-78
2022/01/21 10:45:48;;;;;;;1.10;1.10;;;;;;;;;;6312156;28;20238;-78
2022/01/21 10:48:58;;;;;;;1.43;1.40;;;;;;;;;;6311928;28;20443;-78
2022/01/21 10:52:03;;;;;;;2.63;1.50;;;;;;;;;;6312148;28;20226;-78
2022/01/21 10:55:26;;;;;;;1.40;1.40;;;;;;;;;;6312667;28;20312;-80
2022/01/21 10:58:38;;;;;;;1.50;1.50;;;;;;;;;;6313668;28;20555;-78
2022/01/21 11:01:42;;;;;;;1.10;1.10;;;;;;;;;;6313099;28;20232;-78
2022/01/21 11:04:47;;;;;;;1.20;1.20;;;;;;;;;;6313601;28;20284;-78
2022/01/21 11:07:57;;;;;;;5.73;1.40;;;;;;;;;;6313062;28;20222;-78
2022/01/21 11:11:02;;;;;;;2.53;1.43;;;;;;;;;;6311059;28;20437;-78
2022/01/21 11:14:12;;;;;;;1.23;1.23;;;;;;;;;;6313563;28;20243;-78
2022/01/21 11:17:16;;;;;;;1.60;1.50;;;;;;;;;;6313074;28;20295;-78
2022/01/21 11:20:33;;;;;;;1.77;1.40;;;;;;;;;;6313006;28;20260;-78
2022/01/21 11:23:38;;;;;;;2.03;1.13;;;;;;;;;;6312803;28;20382;-78
2022/01/21 11:26:43;;;;;;;1.47;1.37;;;;;;;;;;6312321;28;20235;-78
2022/01/21 11:29:49;;;;;;;1.20;1.20;;;;;;;;;;6314457;28;20249;-78
2022/01/21 11:32:53;;;;;;;1.30;1.30;;;;;;;;;;6313575;28;20210;-78
2022/01/21 11:35:57;;;;;;;3.83;1.27;;;;;;;;;;6313046;28;20276;-77
2022/01/21 11:39:02;;;;;;;1.10;1.10;;;;;;;;;;6314291;28;20208;-77
2022/01/21 11:42:08;;;;;;;0.90;0.90;;;;;;;;;;6294703;28;20229;-78
2022/01/21 11:45:31;;;;;;;1.10;1.10;;;;;;;;;;6311672;28;20280;-78
2022/01/21 11:48:51;;;;;;;2.40;1.30;;;;;;;;;;6312574;28;20190;-78
2022/01/21 11:52:09;;;;;;;1.50;1.50;;;;;;;;;;6311078;28;20522;-78
2022/01/21 11:55:32;;;;;;;1.13;1.13;;;;;;;;;;6310604;28;20469;-78
2022/01/21 11:58:36;;;;;;;1.13;1.00;;;;;;;;;;6312600;28;20189;-78
2022/01/21 12:01:47;;;;;;;1.20;1.20;;;;;;;;;;6310939;28;20292;-78
2022/01/21 12:04:53;;;;;;;1.23;1.00;;;;;;;;;;6311175;28;20598;-78
2022/01/21 12:07:59;;;;;;;1.43;1.43;;;;;;;;;;6312117;28;20382;-78
2022/01/21 12:11:35;;;;;;;1.43;1.43;;;;;;;;;;6310376;28;20563;-78
2022/01/21 12:14:45;;;;;;;1.17;1.17;;;;;;;;;;6315493;28;20253;-79
2022/01/21 12:17:56;;;;;;;1.20;1.20;;;;;;;;;;6315363;28;20240;-78
2022/01/21 12:21:05;;;;;;;1.17;1.10;;;;;;;;;;6314987;28;20351;-78
2022/01/21 12:24:12;;;;;;;1.37;1.37;;;;;;;;;;6315177;28;20413;-78
2022/01/21 12:27:17;;;;;;;1.20;1.20;;;;;;;;;;6315771;28;20352;-79
2022/01/21 12:30:27;;;;;;;2.73;1.17;;;;;;;;;;6316869;28;20237;-79
2022/01/21 12:34:03;;;;;;;3.10;1.20;;;;;;;;;;6298083;28;20202;-79
2022/01/21 12:37:11;;;;;;;1.20;1.20;;;;;;;;;;6315760;28;20280;-78
2022/01/21 12:40:32;;;;;;;1.00;1.00;;;;;;;;;;6314991;28;20234;-77
2022/01/21 12:43:42;;;;;;;1.00;1.00;;;;;;;;;;6314844;28;20490;-78
2022/01/21 12:46:47;;;;;;;1.20;1.20;;;;;;;;;;6314824;28;20446;-78
2022/01/21 12:49:53;;;;;;;2.60;1.33;;;;;;;;;;6313801;28;20252;-78
2022/01/21 12:53:20;;;;;;;1.00;1.00;;;;;;;;;;6316062;28;20186;-77
2022/01/21 12:56:23;;;;;;;4.90;1.40;;;;;;;;;;6314327;28;20227;-77
2022/01/21 12:59:28;;;;;;;5.30;1.20;;;;;;;;;;6314346;28;20193;-78
2022/01/21 13:02:33;;;;;;;1.37;1.30;;;;;;;;;;6314447;28;20249;-77
2022/01/21 13:05:45;;;;;;;1.30;1.30;;;;;;;;;;6313783;28;20237;-77
2022/01/21 13:09:03;;;;;;;1.23;1.23;;;;;;;;;;6315164;28;20190;-77
2022/01/21 13:12:13;;;;;;;1.20;1.20;;;;;;;;;;6264183;28;20308;-77
2022/01/21 13:15:18;;;;;;;1.37;1.37;;;;;;;;;;6264592;28;20281;-77
2022/01/21 13:18:24;;;;;;;1.60;1.50;;;;;;;;;;6263647;28;20329;-77
2022/01/21 13:21:30;;;;;;;1.20;1.20;;;;;;;;;;6263980;28;20243;-78
2022/01/21 13:24:37;;;;;;;3.47;1.20;;;;;;;;;;6263513;28;20259;-78
2022/01/21 13:27:45;;;;;;;1.10;1.10;;;;;;;;;;6264923;28;20189;-78
2022/01/21 13:30:49;;;;;;;1.10;1.10;;;;;;;;;;6263405;28;20239;-78
2022/01/21 13:33:53;;;;;;;1.20;1.20;;;;;;;;;;6264257;28;20215;-78
2022/01/21 13:37:00;;;;;;;1.37;1.37;;;;;;;;;;6262928;28;20306;-77
2022/01/21 13:40:08;;;;;;;1.43;1.30;;;;;;;;;;6264091;28;20302;-80
2022/01/21 13:43:14;;;;;;;1.23;1.23;;;;;;;;;;6263575;28;20188;-78
2022/01/21 13:46:19;;;;;;;6.60;1.70;;;;;;;;;;6263155;28;20235;-78
2022/01/21 13:49:25;;;;;;;1.33;1.33;;;;;;;;;;6263220;28;20485;-78
2022/01/21 13:52:46;;;;;;;0.97;0.97;;;;;;;;;;6264463;28;20212;-79
2022/01/21 13:55:51;;;;;;;3.70;1.30;;;;;;;;;;6263310;28;20231;-78
2022/01/21 13:58:56;;;;;;;1.70;1.00;;;;;;;;;;6263943;28;20436;-78
2022/01/21 14:02:06;;;;;;;1.10;1.10;;;;;;;;;;6264281;28;20285;-79
2022/01/21 14:05:13;;;;;;;1.27;1.27;;;;;;;;;;6264582;28;20260;-79
2022/01/21 14:08:28;;;;;;;1.40;1.37;;;;;;;;;;6264759;28;20204;-79
2022/01/21 14:11:40;;;;;;;1.20;1.20;;;;;;;;;;6293603;28;20228;-81
2022/01/21 14:14:47;;;;;;;1.90;1.80;;;;;;;;;;6314789;28;20225;-79
2022/01/21 14:17:51;;;;;;;1.20;1.20;;;;;;;;;;6313534;28;20527;-78
2022/01/21 14:21:07;;;;;;;2.37;1.60;;;;;;;;;;6314316;28;20242;-79
2022/01/21 14:24:16;;;;;;;2.43;1.20;;;;;;;;;;6314477;28;20197;-79
2022/01/21 14:27:23;;;;;;;1.10;1.10;;;;;;;;;;6313801;28;20238;-80
2022/01/21 14:30:27;;;;;;;1.37;1.37;;;;;;;;;;6313925;28;20240;-79
2022/01/21 14:33:39;;;;;;;3.43;1.27;;;;;;;;;;6315542;28;20206;-79
2022/01/21 14:36:45;;;;;;;1.40;1.40;;;;;;;;;;6313585;28;20237;-79
2022/01/21 14:39:51;;;;;;;2.03;1.50;;;;;;;;;;6314269;28;20233;-80
2022/01/21 14:43:05;;;;;;;2.47;1.00;;;;;;;;;;6314822;28;20276;-79
2022/01/21 14:46:10;;;;;;;1.30;1.30;;;;;;;;;;6314443;28;20234;-79
2022/01/21 14:49:15;;;;;;;3.70;1.30;;;;;;;;;;6315263;28;20187;-79
2022/01/21 14:52:34;;;;;;;1.10;1.10;;;;;;;;;;6314180;28;20233;-79
2022/01/21 14:55:44;;;;;;;1.20;1.20;;;;;;;;;;6313833;28;20292;-79
2022/01/21 14:58:48;;;;;;;1.83;1.73;;;;;;;;;;6314402;28;20197;-79
2022/01/21 15:01:57;;;;;;;4.10;1.10;;;;;;;;;;6313600;28;20241;-79
2022/01/21 15:05:04;;;;;;;0.90;0.90;;;;;;;;;;6313281;28;20236;-79
2022/01/21 15:08:18;;;;;;;1.63;1.23;;;;;;;;;;6315101;28;20186;-79
2022/01/21 15:11:53;;;;;;;1.30;1.30;;;;;;;;;;6313654;28;20253;-79
2022/01/21 15:14:58;;;;;;;2.40;1.27;;;;;;;;;;6314460;28;20248;-79
2022/01/21 15:18:03;;;;;;;2.73;1.33;;;;;;;;;;6312104;28;20187;-78
2022/01/21 15:21:22;;;;;;;1.27;1.27;;;;;;;;;;6311496;28;20296;-80
2022/01/21 15:24:26;;;;;;;1.37;1.37;;;;;;;;;;6311019;28;20187;-78
2022/01/21 15:27:32;;;;;;;1.10;1.10;;;;;;;;;;6313050;28;20209;-78
2022/01/21 15:30:37;;;;;;;3.37;1.50;;;;;;;;;;6315445;28;20229;-81
2022/01/21 15:33:42;;;;;;;1.00;1.00;;;;;;;;;;6316863;28;20257;-80
2022/01/21 15:36:47;;;;;;;2.73;1.30;;;;;;;;;;6315000;28;20544;-82
2022/01/21 15:39:51;;;;;;;1.30;1.30;;;;;;;;;;6315802;28;20409;-80
2022/01/21 15:42:57;;;;;;;1.03;1.03;;;;;;;;;;6314944;28;20225;-80
2022/01/21 15:46:01;;;;;;;1.10;1.10;;;;;;;;;;6316260;28;20240;-80
2022/01/21 15:49:06;;;;;;;2.97;1.53;;;;;;;;;;6322492;28;20187;-80
2022/01/21 15:52:12;;;;;;;1.20;1.20;;;;;;;;;;6320923;28;20248;-80
2022/01/21 15:55:17;;;;;;;1.93;1.30;;;;;;;;;;6322106;28;20242;-80
2022/01/21 15:58:23;;;;;;;1.87;1.43;;;;;;;;;;6323401;28;20381;-80
2022/01/21 16:01:28;;;;;;;4.07;1.30;;;;;;;;;;6323216;28;20229;-81
2022/01/21 16:04:33;;;;;;;1.30;1.30;;;;;;;;;;6323722;28;20193;-82
2022/01/21 16:07:37;;;;;;;1.27;1.27;;;;;;;;;;6324103;28;20186;-81
2022/01/21 16:10:42;;;;;;;1.40;1.20;;;;;;;;;;6323630;28;20232;-81
2022/01/21 16:13:56;;;;;;;1.50;1.50;;;;;;;;;;6324725;28;20392;-81
2022/01/21 16:17:00;;;;;;;1.40;1.40;;;;;;;;;;6325153;28;20233;-81
2022/01/21 16:20:05;;;;;;;1.73;1.73;;;;;;;;;;6328663;28;20237;-81
2022/01/21 16:23:11;;;;;;;1.20;1.20;;;;;;;;;;6329387;28;20435;-80
2022/01/21 16:26:28;;;;;;;1.50;1.40;;;;;;;;;;6328734;28;20229;-81
2022/01/21 16:29:36;;;;;;;1.03;1.03;;;;;;;;;;6328717;28;20183;-81
2022/01/21 16:32:40;;;;;;;1.33;1.23;;;;;;;;;;6328092;28;20496;-81
2022/01/21 16:35:44;;;;;;;1.20;1.20;;;;;;;;;;6317850;28;20271;-81
2022/01/21 16:38:49;;;;;;;2.13;1.40;;;;;;;;;;6318221;28;20358;-80
2022/01/21 16:41:53;;;;;;;1.30;1.30;;;;;;;;;;6317823;28;20229;-80
2022/01/21 16:44:59;;;;;;;1.67;1.57;;;;;;;;;;6317872;28;20282;-80
2022/01/21 16:48:05;;;;;;;1.37;1.37;;;;;;;;;;6318247;28;20213;-80
2022/01/21 16:51:10;;;;;;;2.10;1.30;;;;;;;;;;6316933;28;20462;-80
2022/01/21 16:54:14;;;;;;;1.30;1.30;;;;;;;;;;6318348;28;20210;-81
2022/01/21 16:57:19;;;;;;;1.33;1.30;;;;;;;;;;6298882;28;20236;-83
2022/01/21 17:00:27;;;;;;;1.50;1.50;;;;;;;;;;6316944;28;20233;-81
2022/01/21 17:03:32;;;;;;;1.23;1.13;;;;;;;;;;6318019;28;20213;-81
2022/01/21 17:06:37;;;;;;;1.10;1.10;;;;;;;;;;6316933;28;20233;-81
2022/01/21 17:09:41;;;;;;;1.20;1.20;;;;;;;;;;6311352;28;20258;-81
2022/01/21 17:12:45;;;;;;;1.60;1.60;;;;;;;;;;6292099;28;20191;-81
2022/01/21 17:15:51;;;;;;;1.40;1.40;;;;;;;;;;6292253;28;20250;-81
2022/01/21 17:18:56;;;;;;;1.73;1.73;;;;;;;;;;6293363;28;20187;-81
2022/01/21 17:22:00;;;;;;;4.03;1.33;;;;;;;;;;6291482;28;20238;-81
2022/01/21 17:25:06;;;;;;;5.07;1.87;;;;;;;;;;6292214;28;20231;-81
2022/01/21 17:28:16;;;;;;;1.30;1.30;;;;;;;;;;6293424;28;20224;-81
2022/01/21 17:31:22;;;;;;;4.80;1.63;;;;;;;;;;6274387;28;20229;-81
2022/01/21 17:34:26;;;;;;;1.67;1.50;;;;;;;;;;6292444;28;20201;-80
2022/01/21 17:37:31;;;;;;;2.47;1.63;;;;;;;;;;6293493;28;20285;-81
2022/01/21 17:40:35;;;;;;;1.37;1.37;;;;;;;;;;6286305;28;20308;-81
2022/01/21 17:43:40;;;;;;;1.37;1.37;;;;;;;;;;6291959;28;20215;-80
2022/01/21 17:46:47;;;;;;;1.63;1.50;;;;;;;;;;6292171;28;20230;-79
2022/01/21 17:49:51;;;;;;;1.20;1.20;;;;;;;;;;6287024;28;20507;-77
2022/01/21 17:52:56;;;;;;;1.30;1.30;;;;;;;;;;6288673;28;20270;-77
2022/01/21 17:56:01;;;;;;;1.40;1.40;;;;;;;;;;6287470;28;20305;-77
2022/01/21 17:59:09;;;;;;;1.53;1.50;;;;;;;;;;6287645;28;20362;-77
2022/01/21 18:02:14;;;;;;;1.40;1.37;;;;;;;;;;6287650;28;20230;-78
2022/01/21 18:05:18;;;;;;;5.97;2.03;;;;;;;;;;6288277;28;20315;-77
2022/01/21 18:08:23;;;;;;;3.50;1.63;;;;;;;;;;6289172;28;20464;-77
2022/01/21 18:11:28;;;;;;;1.30;1.30;;;;;;;;;;6300262;28;20229;-78
2022/01/21 18:14:32;;;;;;;1.77;1.67;;;;;;;;;;6312912;28;20190;-78
2022/01/21 18:17:38;;;;;;;1.60;1.50;;;;;;;;;;6311976;28;20535;-77
2022/01/21 18:20:42;;;;;;;1.70;1.60;;;;;;;;;;6312141;28;20242;-77
2022/01/21 18:23:48;;;;;;;2.50;1.57;;;;;;;;;;6312100;28;20546;-78
2022/01/21 18:26:52;;;;;;;1.80;1.43;;;;;;;;;;6311884;28;20233;-78
2022/01/21 18:29:58;;;;;;;1.60;1.60;;;;;;;;;;6311494;28;20541;-78
2022/01/21 18:33:05;;;;;;;3.50;1.50;;;;;;;;;;6317621;28;20237;-78
2022/01/21 18:36:12;;;;;;;1.60;1.60;;;;;;;;;;6313660;28;20234;-82
2022/01/21 18:39:19;;;;;;;5.07;1.57;;;;;;;;;;6317959;28;20221;-79
2022/01/21 18:42:30;;;;;;;1.70;1.60;;;;;;;;;;6296493;28;20233;-77
2022/01/21 18:45:42;;;;;;;1.57;1.53;;;;;;;;;;6315923;28;20234;-77
2022/01/21 18:48:47;;;;;;;5.00;1.50;;;;;;;;;;6317301;28;20186;-78
2022/01/21 18:51:52;;;;;;;1.33;1.33;;;;;;;;;;6312860;28;20328;-77
2022/01/21 18:54:57;;;;;;;1.10;1.10;;;;;;;;;;6314255;28;20232;-77
2022/01/21 18:58:02;;;;;;;1.43;1.43;;;;;;;;;;6311475;28;20187;-77
2022/01/21 19:01:08;;;;;;;1.50;1.50;;;;;;;;;;6313006;28;20283;-77
2022/01/21 19:04:16;;;;;;;1.60;1.60;;;;;;;;;;6316833;28;20219;-78
2022/01/21 19:07:21;;;;;;;1.47;1.47;;;;;;;;;;6311216;28;20346;-78
2022/01/21 19:10:27;;;;;;;6.23;1.70;;;;;;;;;;6302190;28;20288;-77
2022/01/21 19:13:31;;;;;;;1.90;1.90;;;;;;;;;;6290092;28;20186;-76
2022/01/21 19:16:36;;;;;;;1.67;1.67;;;;;;;;;;6289360;28;20234;-77
2022/01/21 19:19:47;;;;;;;2.90;1.60;;;;;;;;;;6289333;28;20216;-78